Spray — MAZF9 — position and weather

sailwx.info

Track history (hours):
 
Tides and Currents Weather Stations Pressure Air Temp Water Temp Dewpoint Dewpoint Depression Visibility Wind Speed Wind Dir Waves Ship Positions

Spray

Last reported at 2018-Mar-24 18:54 UTC. Time now 2018-Jul-17 05:44 UTC.
Position N 16°39' W 061°48'.
Warning: this ship's position is months out of date.

Length 15 m.

Type: Sailing vessel. MMSI: 235011785.

Date/timePositionNaut miles runAvg speedWind from/ knotsBaromVisibWave heightAir tempDewpointWater temp
2018-Mar-24 18:54N 16°39' W 061°48'3 6.0
2018-Mar-24 18:27N 16°41' W 061°48'3 5.7
2018-Mar-24 17:59N 16°44' W 061°48'3 6.1
2018-Mar-24 17:29N 16°47' W 061°47'3 6.4
2018-Mar-24 17:00N 16°50' W 061°47'3 5.9
2018-Mar-24 16:30N 16°53' W 061°47'3 6.1
2018-Mar-24 16:00N 16°56' W 061°47'3 6.1
2018-Mar-24 15:30N 16°59' W 061°47'2 3.6
2018-Mar-24 15:00N 17°01' W 061°47'  
2018-Mar-20 20:47N 17°01' W 061°47'0 1.3
2018-Mar-20 20:30N 17°01' W 061°47'2 4.6
2018-Mar-20 20:00N 17°00' W 061°49'3 4.3
2018-Mar-20 19:12N 17°01' W 061°53'4 4.4
2018-Mar-20 18:24N 17°04' W 061°54'  
Track history (hours):
 
Tides and Currents Weather Stations Pressure Air Temp Water Temp Dewpoint Dewpoint Depression Visibility Wind Speed Wind Dir Waves Ship Positions

Spray

Last reported at 2018-Mar-24 18:54 UTC. Time now 2018-Jul-17 05:44 UTC.
Position N 16°39' W 061°48'.
Warning: this ship's position is months out of date.

Length 15 m.

Type: Sailing vessel. MMSI: 235011785.

Date/timePositionNaut miles runAvg speedWind from/ knotsBaromVisibWave heightAir tempDewpointWater temp
2018-Mar-24 18:54N 16°39' W 061°48'3 6.0
2018-Mar-24 18:27N 16°41' W 061°48'3 5.7
2018-Mar-24 17:59N 16°44' W 061°48'3 6.1
2018-Mar-24 17:29N 16°47' W 061°47'3 6.4
2018-Mar-24 17:00N 16°50' W 061°47'3 5.9
2018-Mar-24 16:30N 16°53' W 061°47'3 6.1
2018-Mar-24 16:00N 16°56' W 061°47'3 6.1
2018-Mar-24 15:30N 16°59' W 061°47'2 3.6
2018-Mar-24 15:00N 17°01' W 061°47'  
2018-Mar-20 20:47N 17°01' W 061°47'0 1.3
2018-Mar-20 20:30N 17°01' W 061°47'2 4.6
2018-Mar-20 20:00N 17°00' W 061°49'3 4.3
2018-Mar-20 19:12N 17°01' W 061°53'4 4.4
2018-Mar-20 18:24N 17°04' W 061°54'  

Dump ship's entire track history